sensor_id;sensor_type;location;lat;lon;timestamp;pressure;altitude;pressure_sealevel;temperature;humidity
29467;BME280;60968;37.490;-122.288;2022-12-08T00:02:43;99549.47;;;9.98;95.77
29467;BME280;60968;37.490;-122.288;2022-12-08T00:05:48;99552.09;;;9.96;95.76
29467;BME280;60968;37.490;-122.288;2022-12-08T00:08:49;99552.94;;;9.95;96.20
29467;BME280;60968;37.490;-122.288;2022-12-08T00:12:06;99552.09;;;9.86;97.58
29467;BME280;60968;37.490;-122.288;2022-12-08T00:15:07;99553.88;;;9.76;98.23
29467;BME280;60968;37.490;-122.288;2022-12-08T00:18:08;99559.09;;;9.67;98.58
29467;BME280;60968;37.490;-122.288;2022-12-08T00:21:09;99560.84;;;9.57;100.00
29467;BME280;60968;37.490;-122.288;2022-12-08T00:24:10;99563.47;;;9.46;100.00
29467;BME280;60968;37.490;-122.288;2022-12-08T00:27:14;99559.13;;;9.36;100.00
29467;BME280;60968;37.490;-122.288;2022-12-08T00:30:15;99566.94;;;9.28;100.00
29467;BME280;60968;37.490;-122.288;2022-12-08T00:33:17;99561.75;;;9.17;100.00
29467;BME280;60968;37.490;-122.288;2022-12-08T00:36:18;99565.22;;;9.12;100.00
29467;BME280;60968;37.490;-122.288;2022-12-08T00:39:19;99569.53;;;9.00;100.00
29467;BME280;60968;37.490;-122.288;2022-12-08T00:42:20;99565.16;;;8.88;100.00
29467;BME280;60968;37.490;-122.288;2022-12-08T00:45:22;99561.69;;;8.80;100.00
29467;BME280;60968;37.490;-122.288;2022-12-08T00:48:23;99563.44;;;8.73;100.00
29467;BME280;60968;37.490;-122.288;2022-12-08T00:51:23;99564.28;;;8.68;100.00
29467;BME280;60968;37.490;-122.288;2022-12-08T00:54:24;99564.25;;;8.60;100.00
29467;BME280;60968;37.490;-122.288;2022-12-08T00:57:25;99564.22;;;8.51;100.00
29467;BME280;60968;37.490;-122.288;2022-12-08T01:00:26;99563.31;;;8.43;100.00
29467;BME280;60968;37.490;-122.288;2022-12-08T01:03:27;99571.06;;;8.33;100.00
29467;BME280;60968;37.490;-122.288;2022-12-08T01:06:28;99566.69;;;8.26;100.00
29467;BME280;60968;37.490;-122.288;2022-12-08T01:09:29;99563.22;;;8.22;100.00
29467;BME280;60968;37.490;-122.288;2022-12-08T01:12:30;99573.59;;;8.18;100.00
29467;BME280;60968;37.490;-122.288;2022-12-08T01:15:32;99569.25;;;8.15;100.00
29467;BME280;60968;37.490;-122.288;2022-12-08T01:18:33;99565.78;;;8.12;100.00
29467;BME280;60968;37.490;-122.288;2022-12-08T01:21:34;99572.66;;;8.05;100.00
29467;BME280;60968;37.490;-122.288;2022-12-08T01:24:35;99564.84;;;8.00;100.00
29467;BME280;60968;37.490;-122.288;2022-12-08T01:27:36;99563.09;;;7.96;100.00
29467;BME280;60968;37.490;-122.288;2022-12-08T01:30:39;99557.00;;;7.91;100.00
29467;BME280;60968;37.490;-122.288;2022-12-08T01:33:41;99557.00;;;7.86;100.00
29467;BME280;60968;37.490;-122.288;2022-12-08T01:36:42;99550.91;;;7.80;100.00
29467;BME280;60968;37.490;-122.288;2022-12-08T01:39:43;99550.00;;;7.75;100.00
29467;BME280;60968;37.490;-122.288;2022-12-08T01:42:45;99550.84;;;7.70;100.00
29467;BME280;60968;37.490;-122.288;2022-12-08T01:45:46;99550.81;;;7.67;100.00
29467;BME280;60968;37.490;-122.288;2022-12-08T01:48:48;99549.06;;;7.66;100.00
29467;BME280;60968;37.490;-122.288;2022-12-08T01:51:55;99556.91;;;7.68;100.00
29467;BME280;60968;37.490;-122.288;2022-12-08T01:55:10;99556.84;;;7.62;100.00
29467;BME280;60968;37.490;-122.288;2022-12-08T01:58:40;99563.69;;;7.55;100.00
29467;BME280;60968;37.490;-122.288;2022-12-08T02:01:38;99561.09;;;7.52;100.00
29467;BME280;60968;37.490;-122.288;2022-12-08T02:04:41;99560.25;;;7.51;100.00
29467;BME280;60968;37.490;-122.288;2022-12-08T02:07:42;99560.22;;;7.47;100.00
29467;BME280;60968;37.490;-122.288;2022-12-08T02:10:45;99565.41;;;7.48;100.00
29467;BME280;60968;37.490;-122.288;2022-12-08T02:13:47;99572.31;;;7.51;100.00
29467;BME280;60968;37.490;-122.288;2022-12-08T02:27:27;99578.28;;;7.39;96.38
29467;BME280;60968;37.490;-122.288;2022-12-08T02:34:02;99572.38;;;7.60;90.70
29467;BME280;60968;37.490;-122.288;2022-12-08T02:37:08;99569.81;;;7.66;88.61
29467;BME280;60968;37.490;-122.288;2022-12-08T02:40:49;99574.19;;;7.72;84.38
29467;BME280;60968;37.490;-122.288;2022-12-08T02:44:16;99577.75;;;7.83;83.74
29467;BME280;60968;37.490;-122.288;2022-12-08T02:47:21;99576.06;;;7.95;81.12
29467;BME280;60968;37.490;-122.288;2022-12-08T02:50:23;99577.00;;;8.07;82.27
29467;BME280;60968;37.490;-122.288;2022-12-08T02:53:29;99579.59;;;8.09;80.72
29467;BME280;60968;37.490;-122.288;2022-12-08T02:56:54;99586.53;;;8.10;81.63
29467;BME280;60968;37.490;-122.288;2022-12-08T03:03:43;99600.38;;;8.11;81.75
29467;BME280;60968;37.490;-122.288;2022-12-08T03:06:58;99599.53;;;8.15;79.98
29467;BME280;60968;37.490;-122.288;2022-12-08T03:10:06;99602.97;;;8.14;81.52
29467;BME280;60968;37.490;-122.288;2022-12-08T03:13:24;99602.13;;;8.15;81.57
29467;BME280;60968;37.490;-122.288;2022-12-08T03:16:27;99607.31;;;8.13;80.01
29467;BME280;60968;37.490;-122.288;2022-12-08T03:19:33;99616.81;;;8.14;81.69
29467;BME280;60968;37.490;-122.288;2022-12-08T03:22:35;99621.97;;;8.06;82.48
29467;BME280;60968;37.490;-122.288;2022-12-08T03:25:47;99618.53;;;8.06;83.91
29467;BME280;60968;37.490;-122.288;2022-12-08T03:28:50;99626.31;;;8.07;85.74
29467;BME280;60968;37.490;-122.288;2022-12-08T03:31:57;99628.03;;;8.08;86.42
29467;BME280;60968;37.490;-122.288;2022-12-08T03:35:05;99636.72;;;8.12;85.64
29467;BME280;60968;37.490;-122.288;2022-12-08T03:38:13;99635.03;;;8.16;83.72
29467;BME280;60968;37.490;-122.288;2022-12-08T03:41:14;99640.13;;;8.03;84.27
29467;BME280;60968;37.490;-122.288;2022-12-08T03:44:15;99637.44;;;7.89;83.34
29467;BME280;60968;37.490;-122.288;2022-12-08T03:47:16;99645.22;;;7.85;84.25
29467;BME280;60968;37.490;-122.288;2022-12-08T03:50:17;99645.13;;;7.74;84.35
29467;BME280;60968;37.490;-122.288;2022-12-08T03:53:18;99645.94;;;7.70;83.75
29467;BME280;60968;37.490;-122.288;2022-12-08T03:56:32;99640.78;;;7.71;84.54
29467;BME280;60968;37.490;-122.288;2022-12-08T03:59:35;99648.56;;;7.73;86.92
29467;BME280;60968;37.490;-122.288;2022-12-08T04:02:36;99644.28;;;7.75;92.35
29467;BME280;60968;37.490;-122.288;2022-12-08T04:05:37;99652.00;;;7.72;96.67
29467;BME280;60968;37.490;-122.288;2022-12-08T04:08:39;99655.41;;;7.65;98.01
29467;BME280;60968;37.490;-122.288;2022-12-08T04:11:42;99657.97;;;7.59;97.52
29467;BME280;60968;37.490;-122.288;2022-12-08T04:14:43;99664.00;;;7.58;96.46
29467;BME280;60968;37.490;-122.288;2022-12-08T04:17:44;99668.31;;;7.54;96.32
29467;BME280;60968;37.490;-122.288;2022-12-08T04:20:45;99670.84;;;7.49;96.42
29467;BME280;60968;37.490;-122.288;2022-12-08T04:23:46;99670.81;;;7.45;96.62
29467;BME280;60968;37.490;-122.288;2022-12-08T04:26:47;99681.16;;;7.43;96.28
29467;BME280;60968;37.490;-122.288;2022-12-08T04:29:48;99687.19;;;7.42;95.60
29467;BME280;60968;37.490;-122.288;2022-12-08T04:32:49;99682.00;;;7.39;96.48
29467;BME280;60968;37.490;-122.288;2022-12-08T04:35:49;99685.41;;;7.33;96.62
29467;BME280;60968;37.490;-122.288;2022-12-08T04:38:50;99684.44;;;7.25;97.42
29467;BME280;60968;37.490;-122.288;2022-12-08T04:41:51;99686.97;;;7.16;97.72
29467;BME280;60968;37.490;-122.288;2022-12-08T04:44:52;99693.94;;;7.21;96.63
29467;BME280;60968;37.490;-122.288;2022-12-08T04:47:53;99694.00;;;7.31;96.39
29467;BME280;60968;37.490;-122.288;2022-12-08T04:50:53;99707.69;;;7.16;98.61
29467;BME280;60968;37.490;-122.288;2022-12-08T04:53:54;99699.78;;;7.02;99.73
29467;BME280;60968;37.490;-122.288;2022-12-08T04:56:55;99699.69;;;6.96;98.63
29467;BME280;60968;37.490;-122.288;2022-12-08T04:59:56;99697.16;;;7.00;96.63
29467;BME280;60968;37.490;-122.288;2022-12-08T05:02:57;99696.31;;;7.03;96.71
29467;BME280;60968;37.490;-122.288;2022-12-08T05:05:59;99698.03;;;7.04;96.16
29467;BME280;60968;37.490;-122.288;2022-12-08T05:09:00;99696.31;;;7.03;94.97
29467;BME280;60968;37.490;-122.288;2022-12-08T05:12:01;99707.47;;;6.99;97.15
29467;BME280;60968;37.490;-122.288;2022-12-08T05:15:02;99707.38;;;6.88;97.48
29467;BME280;60968;37.490;-122.288;2022-12-08T05:18:04;99707.09;;;6.66;99.58
29467;BME280;60968;37.490;-122.288;2022-12-08T05:21:05;99713.75;;;6.46;100.00
29467;BME280;60968;37.490;-122.288;2022-12-08T05:24:07;99720.59;;;6.42;100.00
29467;BME280;60968;37.490;-122.288;2022-12-08T05:27:09;99715.41;;;6.42;100.00
29467;BME280;60968;37.490;-122.288;2022-12-08T05:30:10;99717.00;;;6.34;100.00
29467;BME280;60968;37.490;-122.288;2022-12-08T05:33:11;99723.78;;;6.24;100.00
29467;BME280;60968;37.490;-122.288;2022-12-08T05:36:13;99722.06;;;6.25;100.00
29467;BME280;60968;37.490;-122.288;2022-12-08T05:39:14;99720.41;;;6.30;100.00
29467;BME280;60968;37.490;-122.288;2022-12-08T05:42:16;99724.78;;;6.34;100.00
29467;BME280;60968;37.490;-122.288;2022-12-08T05:45:16;99728.16;;;6.30;100.00
29467;BME280;60968;37.490;-122.288;2022-12-08T05:48:17;99737.72;;;6.34;100.00
29467;BME280;60968;37.490;-122.288;2022-12-08T05:51:23;99734.44;;;6.44;100.00
29467;BME280;60968;37.490;-122.288;2022-12-08T05:54:24;99731.13;;;6.55;100.00
29467;BME280;60968;37.490;-122.288;2022-12-08T05:57:37;99734.53;;;6.53;100.00
29467;BME280;60968;37.490;-122.288;2022-12-08T06:00:37;99730.13;;;6.46;100.00
29467;BME280;60968;37.490;-122.288;2022-12-08T06:03:38;99732.66;;;6.42;100.00
29467;BME280;60968;37.490;-122.288;2022-12-08T06:06:39;99731.75;;;6.38;100.00
29467;BME280;60968;37.490;-122.288;2022-12-08T06:09:40;99741.13;;;6.31;100.00
29467;BME280;60968;37.490;-122.288;2022-12-08T06:12:41;99742.84;;;6.31;100.00
29467;BME280;60968;37.490;-122.288;2022-12-08T06:15:42;99742.00;;;6.30;100.00
29467;BME280;60968;37.490;-122.288;2022-12-08T06:18:43;99748.97;;;6.34;100.00
29467;BME280;60968;37.490;-122.288;2022-12-08T06:21:44;99736.91;;;6.37;100.00
29467;BME280;60968;37.490;-122.288;2022-12-08T06:24:46;99737.84;;;6.40;100.00
29467;BME280;60968;37.490;-122.288;2022-12-08T06:27:47;99744.00;;;6.50;100.00
29467;BME280;60968;37.490;-122.288;2022-12-08T06:30:48;99738.88;;;6.53;100.00
29467;BME280;60968;37.490;-122.288;2022-12-08T06:33:49;99739.69;;;6.50;100.00
29467;BME280;60968;37.490;-122.288;2022-12-08T06:36:50;99740.53;;;6.49;100.00
29467;BME280;60968;37.490;-122.288;2022-12-08T06:39:50;99740.53;;;6.49;100.00
29467;BME280;60968;37.490;-122.288;2022-12-08T06:42:51;99748.25;;;6.45;100.00
29467;BME280;60968;37.490;-122.288;2022-12-08T06:45:52;99747.41;;;6.47;100.00
29467;BME280;60968;37.490;-122.288;2022-12-08T06:48:56;99747.38;;;6.43;100.00
29467;BME280;60968;37.490;-122.288;2022-12-08T06:51:57;99746.44;;;6.41;100.00
29467;BME280;60968;37.490;-122.288;2022-12-08T06:54:58;99750.00;;;6.47;100.00
29467;BME280;60968;37.490;-122.288;2022-12-08T06:57:59;99740.56;;;6.52;100.00
29467;BME280;60968;37.490;-122.288;2022-12-08T07:01:11;99751.91;;;6.62;100.00
29467;BME280;60968;37.490;-122.288;2022-12-08T07:04:12;99744.91;;;6.55;100.00
29467;BME280;60968;37.490;-122.288;2022-12-08T07:07:13;99745.84;;;6.59;100.00
29467;BME280;60968;37.490;-122.288;2022-12-08T07:10:17;99748.47;;;6.60;100.00
29467;BME280;60968;37.490;-122.288;2022-12-08T07:13:18;99752.84;;;6.64;100.00
29467;BME280;60968;37.490;-122.288;2022-12-08T07:16:19;99749.25;;;6.55;100.00
29467;BME280;60968;37.490;-122.288;2022-12-08T07:19:20;99761.25;;;6.49;100.00
29467;BME280;60968;37.490;-122.288;2022-12-08T07:22:21;99750.88;;;6.49;100.00
29467;BME280;60968;37.490;-122.288;2022-12-08T07:25:22;99762.06;;;6.47;100.00
29467;BME280;60968;37.490;-122.288;2022-12-08T07:28:23;99756.09;;;6.51;100.00
29467;BME280;60968;37.490;-122.288;2022-12-08T07:31:24;99763.97;;;6.57;100.00
29467;BME280;60968;37.490;-122.288;2022-12-08T07:34:25;99758.03;;;6.66;100.00
29467;BME280;60968;37.490;-122.288;2022-12-08T07:37:26;99752.03;;;6.68;100.00
29467;BME280;60968;37.490;-122.288;2022-12-08T07:40:26;99753.66;;;6.62;100.00
29467;BME280;60968;37.490;-122.288;2022-12-08T07:43:33;99751.84;;;6.56;100.00
29467;BME280;60968;37.490;-122.288;2022-12-08T07:46:36;99753.50;;;6.52;100.00
29467;BME280;60968;37.490;-122.288;2022-12-08T07:49:38;99759.53;;;6.50;100.00
29467;BME280;60968;37.490;-122.288;2022-12-08T07:52:39;99756.94;;;6.48;100.00
29467;BME280;60968;37.490;-122.288;2022-12-08T07:55:43;99758.75;;;6.54;100.00
29467;BME280;60968;37.490;-122.288;2022-12-08T07:58:44;99755.22;;;6.50;100.00
29467;BME280;60968;37.490;-122.288;2022-12-08T08:01:45;99743.88;;;6.42;100.00
29467;BME280;60968;37.490;-122.288;2022-12-08T08:04:49;99745.59;;;6.40;100.00
29467;BME280;60968;37.490;-122.288;2022-12-08T08:07:50;99748.06;;;6.32;100.00
29467;BME280;60968;37.490;-122.288;2022-12-08T08:10:52;99747.06;;;6.24;100.00
29467;BME280;60968;37.490;-122.288;2022-12-08T08:13:52;99754.03;;;6.28;100.00
29467;BME280;60968;37.490;-122.288;2022-12-08T08:16:53;99745.41;;;6.28;100.00
29467;BME280;60968;37.490;-122.288;2022-12-08T08:19:54;99746.28;;;6.30;100.00
29467;BME280;60968;37.490;-122.288;2022-12-08T08:22:55;99758.38;;;6.29;100.00
29467;BME280;60968;37.490;-122.288;2022-12-08T08:26:01;99740.16;;;6.23;100.00
29467;BME280;60968;37.490;-122.288;2022-12-08T08:29:03;99737.50;;;6.20;100.00
29467;BME280;60968;37.490;-122.288;2022-12-08T08:32:04;99740.06;;;6.17;100.00
29467;BME280;60968;37.490;-122.288;2022-12-08T08:35:06;99745.22;;;6.17;100.00
29467;BME280;60968;37.490;-122.288;2022-12-08T08:38:07;99744.31;;;6.12;100.00
29467;BME280;60968;37.490;-122.288;2022-12-08T08:41:09;99749.50;;;6.12;100.00
29467;BME280;60968;37.490;-122.288;2022-12-08T08:44:12;99740.03;;;6.15;100.00
29467;BME280;60968;37.490;-122.288;2022-12-08T08:47:14;99738.25;;;6.11;100.00
29467;BME280;60968;37.490;-122.288;2022-12-08T08:50:14;99742.66;;;6.17;100.00
29467;BME280;60968;37.490;-122.288;2022-12-08T08:53:15;99745.19;;;6.14;100.00
29467;BME280;60968;37.490;-122.288;2022-12-08T08:56:17;99740.91;;;6.16;100.00
29467;BME280;60968;37.490;-122.288;2022-12-08T08:59:21;99737.44;;;6.14;100.00
29467;BME280;60968;37.490;-122.288;2022-12-08T09:02:22;99736.63;;;6.16;100.00
29467;BME280;60968;37.490;-122.288;2022-12-08T09:05:23;99736.59;;;6.15;100.00
29467;BME280;60968;37.490;-122.288;2022-12-08T09:08:25;99733.19;;;6.17;100.00
29467;BME280;60968;37.490;-122.288;2022-12-08T09:11:26;99732.28;;;6.17;100.00
29467;BME280;60968;37.490;-122.288;2022-12-08T09:14:27;99738.28;;;6.13;100.00
29467;BME280;60968;37.490;-122.288;2022-12-08T09:17:28;99740.84;;;6.13;100.00
29467;BME280;60968;37.490;-122.288;2022-12-08T09:20:30;99735.63;;;6.10;100.00
29467;BME280;60968;37.490;-122.288;2022-12-08T09:23:31;99739.00;;;6.04;100.00
29467;BME280;60968;37.490;-122.288;2022-12-08T09:26:32;99747.47;;;5.97;100.00
29467;BME280;60968;37.490;-122.288;2022-12-08T09:29:33;99754.31;;;5.95;100.00
29467;BME280;60968;37.490;-122.288;2022-12-08T09:32:34;99758.81;;;6.00;100.00
29467;BME280;60968;37.490;-122.288;2022-12-08T09:35:35;99760.53;;;6.03;100.00
29467;BME280;60968;37.490;-122.288;2022-12-08T09:38:37;99760.53;;;6.03;100.00
29467;BME280;60968;37.490;-122.288;2022-12-08T09:41:51;99754.53;;;6.06;100.00
29467;BME280;60968;37.490;-122.288;2022-12-08T09:45:09;99752.84;;;6.06;100.00
29467;BME280;60968;37.490;-122.288;2022-12-08T09:48:15;99759.69;;;6.03;100.00
29467;BME280;60968;37.490;-122.288;2022-12-08T09:51:19;99767.31;;;5.96;100.00
29467;BME280;60968;37.490;-122.288;2022-12-08T09:54:33;99762.94;;;5.92;100.00
29467;BME280;60968;37.490;-122.288;2022-12-08T09:57:35;99748.28;;;5.94;100.00
29467;BME280;60968;37.490;-122.288;2022-12-08T10:00:36;99750.88;;;5.94;100.00
29467;BME280;60968;37.490;-122.288;2022-12-08T10:03:41;99753.44;;;5.93;100.00
29467;BME280;60968;37.490;-122.288;2022-12-08T10:17:26;99764.09;;;6.10;100.00
29467;BME280;60968;37.490;-122.288;2022-12-08T10:20:39;99766.78;;;6.16;100.00
29467;BME280;60968;37.490;-122.288;2022-12-08T10:23:43;99764.13;;;6.11;100.00
29467;BME280;60968;37.490;-122.288;2022-12-08T10:26:46;99762.44;;;6.12;100.00
29467;BME280;60968;37.490;-122.288;2022-12-08T10:29:46;99762.47;;;6.15;100.00
29467;BME280;60968;37.490;-122.288;2022-12-08T10:32:49;99769.44;;;6.19;100.00
29467;BME280;60968;37.490;-122.288;2022-12-08T10:35:56;99763.34;;;6.17;100.00
29467;BME280;60968;37.490;-122.288;2022-12-08T10:38:58;99745.22;;;6.15;100.00
29467;BME280;60968;37.490;-122.288;2022-12-08T10:45:41;99746.84;;;6.10;100.00
29467;BME280;60968;37.490;-122.288;2022-12-08T10:48:54;99758.91;;;6.08;100.00
29467;BME280;60968;37.490;-122.288;2022-12-08T10:51:55;99761.44;;;6.05;100.00
29467;BME280;60968;37.490;-122.288;2022-12-08T10:54:59;99756.31;;;6.08;100.00
29467;BME280;60968;37.490;-122.288;2022-12-08T10:58:00;99750.25;;;6.06;100.00
29467;BME280;60968;37.490;-122.288;2022-12-08T11:01:17;99744.19;;;6.04;100.00
29467;BME280;60968;37.490;-122.288;2022-12-08T11:04:29;99750.22;;;6.05;100.00
29467;BME280;60968;37.490;-122.288;2022-12-08T11:07:33;99744.16;;;6.03;100.00
29467;BME280;60968;37.490;-122.288;2022-12-08T11:10:41;99744.34;;;6.15;100.00
29467;BME280;60968;37.490;-122.288;2022-12-08T11:13:42;99749.56;;;6.16;100.00
29467;BME280;60968;37.490;-122.288;2022-12-08T11:16:43;99744.41;;;6.18;100.00
29467;BME280;60968;37.490;-122.288;2022-12-08T11:20:01;99746.16;;;6.21;100.00
29467;BME280;60968;37.490;-122.288;2022-12-08T11:23:03;99734.03;;;6.18;100.00
29467;BME280;60968;37.490;-122.288;2022-12-08T11:26:28;99740.94;;;6.17;100.00
29467;BME280;60968;37.490;-122.288;2022-12-08T11:29:32;99725.34;;;6.13;100.00
29467;BME280;60968;37.490;-122.288;2022-12-08T11:32:35;99728.72;;;6.10;100.00
29467;BME280;60968;37.490;-122.288;2022-12-08T11:35:41;99731.19;;;6.01;100.00
29467;BME280;60968;37.490;-122.288;2022-12-08T11:38:46;99731.94;;;5.95;100.00
29467;BME280;60968;37.490;-122.288;2022-12-08T11:41:49;99728.53;;;5.96;100.00
29467;BME280;60968;37.490;-122.288;2022-12-08T11:48:32;99720.03;;;6.04;100.00
29467;BME280;60968;37.490;-122.288;2022-12-08T11:55:02;99718.25;;;6.01;100.00
29467;BME280;60968;37.490;-122.288;2022-12-08T11:58:40;99711.19;;;5.92;100.00
29467;BME280;60968;37.490;-122.288;2022-12-08T12:01:43;99714.53;;;5.85;100.00
29467;BME280;60968;37.490;-122.288;2022-12-08T12:05:06;99708.41;;;5.78;100.00
29467;BME280;60968;37.490;-122.288;2022-12-08T12:08:23;99711.75;;;5.73;100.00
29467;BME280;60968;37.490;-122.288;2022-12-08T12:15:20;99711.53;;;5.60;100.00
29467;BME280;60968;37.490;-122.288;2022-12-08T12:18:30;99714.88;;;5.55;100.00
29467;BME280;60968;37.490;-122.288;2022-12-08T12:24:36;99714.84;;;5.52;100.00
29467;BME280;60968;37.490;-122.288;2022-12-08T12:27:39;99719.88;;;5.45;100.00
29467;BME280;60968;37.490;-122.288;2022-12-08T12:30:56;99709.34;;;5.33;100.00
29467;BME280;60968;37.490;-122.288;2022-12-08T12:34:27;99710.25;;;5.37;100.00
29467;BME280;60968;37.490;-122.288;2022-12-08T12:37:38;99701.63;;;5.35;100.00
29467;BME280;60968;37.490;-122.288;2022-12-08T12:40:41;99703.28;;;5.32;100.00
29467;BME280;60968;37.490;-122.288;2022-12-08T12:54:44;99701.72;;;5.41;100.00
29467;BME280;60968;37.490;-122.288;2022-12-08T13:01:47;99697.34;;;5.38;100.00
29467;BME280;60968;37.490;-122.288;2022-12-08T13:05:15;99701.63;;;5.35;100.00
29467;BME280;60968;37.490;-122.288;2022-12-08T13:08:25;99700.69;;;5.32;100.00
29467;BME280;60968;37.490;-122.288;2022-12-08T13:11:26;99696.34;;;5.30;100.00
29467;BME280;60968;37.490;-122.288;2022-12-08T13:14:36;99693.66;;;5.24;100.00
29467;BME280;60968;37.490;-122.288;2022-12-08T13:17:43;99697.06;;;5.21;100.00
29467;BME280;60968;37.490;-122.288;2022-12-08T13:21:33;99708.94;;;5.13;100.00
29467;BME280;60968;37.490;-122.288;2022-12-08T13:24:32;99711.59;;;5.16;100.00
29467;BME280;60968;37.490;-122.288;2022-12-08T13:27:34;99714.22;;;5.18;100.00
29467;BME280;60968;37.490;-122.288;2022-12-08T13:30:52;99721.03;;;5.14;100.00
29467;BME280;60968;37.490;-122.288;2022-12-08T13:33:53;99715.09;;;5.18;100.00
29467;BME280;60968;37.490;-122.288;2022-12-08T13:40:17;99718.44;;;5.14;100.00
29467;BME280;60968;37.490;-122.288;2022-12-08T13:46:48;99714.34;;;5.24;100.00
29467;BME280;60968;37.490;-122.288;2022-12-08T13:50:12;99710.03;;;5.24;100.00
29467;BME280;60968;37.490;-122.288;2022-12-08T13:53:28;99705.78;;;5.28;100.00
29467;BME280;60968;37.490;-122.288;2022-12-08T13:56:42;99705.78;;;5.26;100.00
29467;BME280;60968;37.490;-122.288;2022-12-08T13:59:44;99704.03;;;5.25;100.00
29467;BME280;60968;37.490;-122.288;2022-12-08T14:02:47;99711.75;;;5.24;100.00
29467;BME280;60968;37.490;-122.288;2022-12-08T14:05:50;99717.75;;;5.23;100.00
29467;BME280;60968;37.490;-122.288;2022-12-08T14:08:55;99718.56;;;5.20;100.00
29467;BME280;60968;37.490;-122.288;2022-12-08T14:12:25;99724.56;;;5.18;100.00
29467;BME280;60968;37.490;-122.288;2022-12-08T14:15:31;99728.84;;;5.17;100.00
29467;BME280;60968;37.490;-122.288;2022-12-08T14:18:32;99725.34;;;5.13;100.00
29467;BME280;60968;37.490;-122.288;2022-12-08T14:21:33;99727.00;;;5.11;100.00
29467;BME280;60968;37.490;-122.288;2022-12-08T14:24:34;99742.59;;;5.16;100.00
29467;BME280;60968;37.490;-122.288;2022-12-08T14:27:38;99742.59;;;5.16;100.00
29467;BME280;60968;37.490;-122.288;2022-12-08T14:30:39;99737.41;;;5.16;100.00
29467;BME280;60968;37.490;-122.288;2022-12-08T14:33:40;99731.41;;;5.17;100.00
29467;BME280;60968;37.490;-122.288;2022-12-08T14:36:42;99736.66;;;5.22;100.00
29467;BME280;60968;37.490;-122.288;2022-12-08T14:39:43;99728.88;;;5.19;100.00
29467;BME280;60968;37.490;-122.288;2022-12-08T14:42:46;99732.34;;;5.19;100.00
29467;BME280;60968;37.490;-122.288;2022-12-08T14:45:49;99733.25;;;5.23;100.00
29467;BME280;60968;37.490;-122.288;2022-12-08T14:48:51;99730.63;;;5.21;100.00
29467;BME280;60968;37.490;-122.288;2022-12-08T14:51:52;99732.38;;;5.21;100.00
29467;BME280;60968;37.490;-122.288;2022-12-08T14:54:53;99729.66;;;5.16;100.00
29467;BME280;60968;37.490;-122.288;2022-12-08T14:57:55;99734.72;;;5.08;100.00
29467;BME280;60968;37.490;-122.288;2022-12-08T15:00:57;99734.63;;;5.04;100.00
29467;BME280;60968;37.490;-122.288;2022-12-08T15:04:15;99739.06;;;5.11;100.00
29467;BME280;60968;37.490;-122.288;2022-12-08T15:07:26;99746.88;;;5.14;100.00
29467;BME280;60968;37.490;-122.288;2022-12-08T15:10:30;99741.72;;;5.15;100.00
29467;BME280;60968;37.490;-122.288;2022-12-08T15:13:32;99739.16;;;5.15;100.00
29467;BME280;60968;37.490;-122.288;2022-12-08T15:16:42;99742.44;;;5.07;100.00
29467;BME280;60968;37.490;-122.288;2022-12-08T15:19:55;99736.38;;;5.06;100.00
29467;BME280;60968;37.490;-122.288;2022-12-08T15:22:56;99734.69;;;5.07;100.00
29467;BME280;60968;37.490;-122.288;2022-12-08T15:25:57;99738.25;;;5.13;100.00
29467;BME280;60968;37.490;-122.288;2022-12-08T15:29:13;99732.41;;;5.24;100.00
29467;BME280;60968;37.490;-122.288;2022-12-08T15:32:19;99730.81;;;5.30;100.00
29467;BME280;60968;37.490;-122.288;2022-12-08T15:35:22;99732.63;;;5.35;100.00
29467;BME280;60968;37.490;-122.288;2022-12-08T15:38:25;99731.94;;;5.45;100.00
29467;BME280;60968;37.490;-122.288;2022-12-08T15:41:27;99729.53;;;5.54;100.00
29467;BME280;60968;37.490;-122.288;2022-12-08T15:44:28;99735.63;;;5.59;100.00
29467;BME280;60968;37.490;-122.288;2022-12-08T15:47:29;99737.47;;;5.66;100.00
29467;BME280;60968;37.490;-122.288;2022-12-08T15:50:30;99735.06;;;5.76;100.00
29467;BME280;60968;37.490;-122.288;2022-12-08T15:53:31;99736.06;;;5.84;100.00
29467;BME280;60968;37.490;-122.288;2022-12-08T15:56:32;99730.22;;;5.96;100.00
29467;BME280;60968;37.490;-122.288;2022-12-08T15:59:33;99730.41;;;6.05;100.00
29467;BME280;60968;37.490;-122.288;2022-12-08T16:02:34;99732.47;;;6.28;100.00
29467;BME280;60968;37.490;-122.288;2022-12-08T16:05:35;99729.34;;;6.52;100.00
29467;BME280;60968;37.490;-122.288;2022-12-08T16:08:36;99732.59;;;7.04;100.00
29467;BME280;60968;37.490;-122.288;2022-12-08T16:11:37;99740.50;;;8.04;100.00
29467;BME280;60968;37.490;-122.288;2022-12-08T16:14:41;99736.59;;;8.65;98.42
29467;BME280;60968;37.490;-122.288;2022-12-08T16:17:42;99737.66;;;9.06;92.74
29467;BME280;60968;37.490;-122.288;2022-12-08T16:20:43;99735.19;;;9.72;89.70
29467;BME280;60968;37.490;-122.288;2022-12-08T16:27:30;99736.91;;;9.98;86.98
29467;BME280;60968;37.490;-122.288;2022-12-08T16:30:31;99736.06;;;10.10;86.71
29467;BME280;60968;37.490;-122.288;2022-12-08T16:33:32;99733.44;;;9.87;86.15
29467;BME280;60968;37.490;-122.288;2022-12-08T16:36:33;99737.78;;;9.97;85.42
29467;BME280;60968;37.490;-122.288;2022-12-08T16:39:34;99736.91;;;10.18;82.77
29467;BME280;60968;37.490;-122.288;2022-12-08T16:42:35;99746.47;;;9.99;86.27
29467;BME280;60968;37.490;-122.288;2022-12-08T16:45:40;99748.16;;;9.65;88.24
29467;BME280;60968;37.490;-122.288;2022-12-08T16:48:42;99748.13;;;9.40;89.46
29467;BME280;60968;37.490;-122.288;2022-12-08T16:51:43;99753.19;;;8.90;88.11
29467;BME280;60968;37.490;-122.288;2022-12-08T16:54:45;99755.78;;;8.89;91.98